Time;durP1;ratioP1;P1;durP2;ratioP2;P2;SDS_P1;SDS_P2;PMS_P1;PMS_P2;Temp;Humidity;BMP_temperature;BMP_pressure;BME280_temperature;BME280_humidity;BME280_pressure;Samples;Min_cycle;Max_cycle;Signal;HPM_P1;HPM_P2
2022/07/10 00:00:35;;;;;;;5.13;0.80;;;14.00;99.90;;;;;;5045594;28;20227;-54
2022/07/10 00:03:03;;;;;;;1.97;0.60;;;14.00;99.90;;;;;;5027764;28;23445;-52
2022/07/10 00:05:30;;;;;;;3.53;0.93;;;14.00;99.90;;;;;;5044859;28;20216;-54
2022/07/10 00:07:57;;;;;;;1.63;0.40;;;14.00;99.90;;;;;;5041585;28;20966;-52
2022/07/10 00:10:25;;;;;;;1.73;0.90;;;14.00;99.90;;;;;;5045433;28;20195;-50
2022/07/10 00:12:52;;;;;;;6.30;1.00;;;14.00;99.90;;;;;;5027150;28;20679;-54
2022/07/10 00:15:21;;;;;;;3.73;0.73;;;14.00;99.90;;;;;;5037242;28;20253;-50
2022/07/10 00:17:48;;;;;;;2.80;1.13;;;14.00;99.90;;;;;;5035637;28;20217;-53
2022/07/10 00:20:15;;;;;;;3.60;0.73;;;14.00;99.90;;;;;;5037288;28;20285;-49
2022/07/10 00:22:43;;;;;;;5.33;1.33;;;14.00;99.90;;;;;;5044374;28;20200;-52
2022/07/10 00:25:12;;;;;;;2.80;0.57;;;14.00;99.90;;;;;;5042376;28;20219;-49
2022/07/10 00:27:39;;;;;;;3.50;1.30;;;14.00;99.90;;;;;;5044814;28;20590;-52
2022/07/10 00:30:07;;;;;;;1.87;0.40;;;13.90;99.90;;;;;;5018221;28;20219;-48
2022/07/10 00:32:36;;;;;;;2.20;0.90;;;13.90;99.90;;;;;;5045142;28;20203;-50
2022/07/10 00:35:02;;;;;;;4.67;1.10;;;13.90;99.90;;;;;;5027145;28;20272;-50
2022/07/10 00:37:30;;;;;;;4.60;0.90;;;13.90;99.90;;;;;;5044629;28;20210;-53
2022/07/10 00:39:56;;;;;;;4.55;0.85;;;13.80;99.90;;;;;;5040222;28;20963;-52
2022/07/10 00:42:24;;;;;;;3.83;1.23;;;14.10;99.90;;;;;;5042478;28;20435;-53
2022/07/10 00:44:50;;;;;;;2.97;0.70;;;14.10;99.90;;;;;;5029459;28;20709;-55
2022/07/10 00:47:19;;;;;;;4.57;0.70;;;14.00;99.90;;;;;;5043738;28;20198;-51
2022/07/10 00:49:48;;;;;;;7.17;0.87;;;13.90;99.90;;;;;;5036021;28;20202;-53
2022/07/10 00:52:17;;;;;;;2.67;0.70;;;13.90;99.90;;;;;;5037629;28;20195;-51
2022/07/10 00:54:46;;;;;;;4.27;1.43;;;13.90;99.90;;;;;;5042635;28;20215;-51
2022/07/10 00:57:15;;;;;;;5.67;0.87;;;13.90;99.90;;;;;;5042518;28;20188;-48
2022/07/10 00:59:42;;;;;;;6.03;0.97;;;13.90;99.90;;;;;;5033712;28;20204;-51
2022/07/10 01:02:10;;;;;;;6.83;1.23;;;13.90;99.90;;;;;;5041609;28;20268;-48
2022/07/10 01:04:37;;;;;;;4.95;1.42;;;13.90;99.90;;;;;;5043628;28;20428;-51
2022/07/10 01:07:06;;;;;;;2.73;0.90;;;13.90;99.90;;;;;;5027262;28;20211;-49
2022/07/10 01:09:33;;;;;;;2.30;1.00;;;13.90;99.90;;;;;;5044080;28;20256;-54
2022/07/10 01:12:01;;;;;;;7.10;0.80;;;13.90;99.90;;;;;;5040681;28;20981;-52
2022/07/10 01:14:29;;;;;;;5.90;1.17;;;13.90;99.90;;;;;;5043774;28;20223;-52
2022/07/10 01:16:56;;;;;;;3.90;1.05;;;13.90;99.90;;;;;;5035305;28;20439;-53
2022/07/10 01:19:23;;;;;;;6.90;1.17;;;14.00;99.90;;;;;;5044126;28;20211;-51
2022/07/10 01:21:51;;;;;;;2.67;1.07;;;13.90;99.90;;;;;;5027307;28;20680;-50
2022/07/10 01:24:18;;;;;;;6.37;1.60;;;13.90;99.90;;;;;;5042648;28;20222;-46
2022/07/10 01:26:45;;;;;;;4.33;0.80;;;13.90;99.90;;;;;;5042421;28;20215;-53
2022/07/10 01:29:12;;;;;;;3.40;0.80;;;13.90;99.90;;;;;;5041816;28;20200;-49
2022/07/10 01:31:39;;;;;;;7.00;1.03;;;13.90;99.90;;;;;;5033467;28;20209;-50
2022/07/10 01:34:09;;;;;;;2.23;0.93;;;13.90;99.90;;;;;;5040344;28;20964;-49
2022/07/10 01:36:37;;;;;;;3.67;0.90;;;13.90;99.90;;;;;;5029215;28;20679;-47
2022/07/10 01:39:06;;;;;;;4.60;1.27;;;13.90;99.90;;;;;;5040159;28;20278;-49
2022/07/10 01:41:33;;;;;;;3.63;1.50;;;13.90;99.90;;;;;;5040934;28;20229;-47
2022/07/10 01:44:00;;;;;;;3.83;1.00;;;13.90;99.90;;;;;;5035896;28;20254;-46
2022/07/10 01:46:27;;;;;;;6.03;1.13;;;13.90;99.90;;;;;;5037658;28;20217;-51
2022/07/10 01:48:54;;;;;;;7.30;1.20;;;13.90;99.90;;;;;;5040370;28;20302;-53
2022/07/10 01:51:21;;;;;;;3.47;1.03;;;13.90;99.90;;;;;;5043526;28;20196;-55
2022/07/10 01:53:49;;;;;;;3.37;0.93;;;13.90;99.90;;;;;;5026570;28;20223;-52
2022/07/10 01:56:17;;;;;;;2.60;0.80;;;13.90;99.90;;;;;;5041942;28;20241;-52
2022/07/10 01:58:44;;;;;;;6.63;1.40;;;13.90;99.90;;;;;;5042338;28;20192;-54
2022/07/10 02:01:11;;;;;;;5.70;1.33;;;13.90;99.90;;;;;;5037771;28;20218;-52
2022/07/10 02:06:22;;;;;;;7.33;1.80;;;13.90;99.90;;;;;;5043436;28;20664;-49
2022/07/10 02:08:49;;;;;;;5.37;1.50;;;13.90;99.90;;;;;;5027174;28;20257;-53
2022/07/10 02:11:17;;;;;;;3.27;1.00;;;13.90;99.90;;;;;;5041817;28;20195;-54
2022/07/10 02:13:44;;;;;;;4.97;1.10;;;13.90;99.90;;;;;;5041300;28;20215;-54
2022/07/10 02:16:12;;;;;;;5.27;1.50;;;13.90;99.90;;;;;;5040958;28;20200;-55
2022/07/10 02:18:39;;;;;;;3.27;1.17;;;13.90;99.90;;;;;;5036876;28;20210;-51
2022/07/10 02:21:06;;;;;;;7.00;1.60;;;13.90;99.90;;;;;;5038924;28;20230;-50
2022/07/10 02:23:33;;;;;;;5.03;1.10;;;13.90;99.90;;;;;;5042712;28;20607;-52
2022/07/10 02:26:00;;;;;;;4.63;1.10;;;13.90;99.90;;;;;;5025603;28;20216;-51
2022/07/10 02:28:29;;;;;;;5.60;1.47;;;13.90;99.90;;;;;;5036274;28;20644;-52
2022/07/10 02:30:56;;;;;;;4.83;1.30;;;13.90;99.90;;;;;;5039748;28;20195;-53
2022/07/10 02:33:23;;;;;;;6.00;1.50;;;13.90;99.90;;;;;;5043084;28;20537;-52
2022/07/10 02:35:49;;;;;;;8.30;1.37;;;13.90;99.90;;;;;;5036631;28;20210;-53
2022/07/10 02:38:16;;;;;;;7.93;1.20;;;13.90;99.90;;;;;;5038690;28;20199;-47
2022/07/10 02:40:43;;;;;;;6.20;1.40;;;13.90;99.90;;;;;;5027287;28;20231;-52
2022/07/10 02:43:10;;;;;;;8.53;1.20;;;13.90;99.90;;;;;;5040177;28;20196;-48
2022/07/10 02:45:38;;;;;;;4.43;1.33;;;13.90;99.90;;;;;;5042771;28;20230;-48
2022/07/10 02:48:05;;;;;;;10.23;1.83;;;13.90;99.90;;;;;;5039583;28;20192;-47
2022/07/10 02:50:32;;;;;;;5.30;1.53;;;13.90;99.90;;;;;;5032343;28;20212;-50
2022/07/10 02:52:59;;;;;;;6.80;1.30;;;13.90;99.90;;;;;;5037798;28;20215;-48
2022/07/10 02:55:26;;;;;;;6.77;1.57;;;13.90;99.90;;;;;;5028474;28;20219;-49
2022/07/10 02:57:53;;;;;;;7.20;1.60;;;13.90;99.90;;;;;;5039499;28;20672;-48
2022/07/10 03:00:20;;;;;;;9.80;1.60;;;13.90;99.90;;;;;;5042483;28;20675;-48
2022/07/10 03:02:48;;;;;;;5.97;1.50;;;13.90;99.90;;;;;;5035661;28;20215;-48
2022/07/10 03:05:15;;;;;;;6.53;1.53;;;13.90;99.90;;;;;;5032161;28;20230;-49
2022/07/10 03:07:42;;;;;;;4.47;1.50;;;13.90;99.90;;;;;;5040551;28;20207;-48
2022/07/10 03:10:10;;;;;;;7.00;1.50;;;13.90;99.90;;;;;;5028657;28;20207;-49
2022/07/10 03:12:37;;;;;;;8.50;1.70;;;13.90;99.90;;;;;;5040748;28;20192;-50
2022/07/10 03:15:05;;;;;;;10.90;1.80;;;13.90;99.90;;;;;;5039039;28;20911;-50
2022/07/10 03:17:32;;;;;;;7.77;1.67;;;13.90;99.90;;;;;;5045959;28;20207;-52
2022/07/10 03:20:00;;;;;;;2.73;1.43;;;13.90;99.90;;;;;;5042689;28;20206;-51
2022/07/10 03:22:28;;;;;;;6.50;1.93;;;13.90;99.90;;;;;;5029836;28;20250;-47
2022/07/10 03:24:54;;;;;;;9.43;1.90;;;14.00;99.90;;;;;;5041602;28;20311;-48
2022/07/10 03:27:21;;;;;;;7.03;1.70;;;13.90;99.90;;;;;;5032023;28;20330;-52
2022/07/10 03:29:48;;;;;;;6.80;1.70;;;13.90;99.90;;;;;;5040175;28;20655;-51
2022/07/10 03:32:15;;;;;;;7.63;2.10;;;14.00;99.90;;;;;;5039615;28;20206;-47
2022/07/10 03:34:42;;;;;;;9.63;1.97;;;13.90;99.90;;;;;;5044872;28;20222;-51
2022/07/10 03:37:11;;;;;;;8.83;1.83;;;13.90;99.90;;;;;;5037931;28;20979;-50
2022/07/10 03:39:37;;;;;;;8.63;2.63;;;14.00;99.90;;;;;;5045961;28;20249;-47
2022/07/10 03:42:05;;;;;;;8.90;2.30;;;14.00;99.90;;;;;;5028925;28;22037;-47
2022/07/10 03:44:32;;;;;;;4.20;1.63;;;13.90;99.90;;;;;;5043824;28;20289;-50
2022/07/10 03:46:59;;;;;;;7.40;1.97;;;13.90;99.90;;;;;;5039312;28;20195;-46
2022/07/10 03:49:26;;;;;;;12.17;2.27;;;13.90;99.90;;;;;;5046009;28;20215;-50
2022/07/10 03:51:54;;;;;;;9.87;2.20;;;13.90;99.90;;;;;;5037905;28;20195;-45
2022/07/10 03:54:22;;;;;;;7.03;2.00;;;13.90;99.90;;;;;;5043288;28;20288;-48
2022/07/10 03:59:34;;;;;;;8.93;1.77;;;13.90;99.90;;;;;;5031574;28;20731;-48
2022/07/10 04:02:01;;;;;;;8.83;2.80;;;13.90;99.90;;;;;;5031422;28;20211;-48
2022/07/10 04:04:28;;;;;;;7.20;1.73;;;13.90;99.90;;;;;;5044621;28;20306;-51
2022/07/10 04:06:55;;;;;;;11.27;2.17;;;13.90;99.90;;;;;;5041813;28;20235;-49
2022/07/10 04:09:23;;;;;;;14.13;2.20;;;13.90;99.90;;;;;;5035306;28;20207;-46
2022/07/10 04:11:50;;;;;;;11.10;2.63;;;13.90;99.90;;;;;;5043136;28;20200;-47
2022/07/10 04:14:17;;;;;;;9.37;2.07;;;13.90;99.90;;;;;;5029235;28;20219;-54
2022/07/10 04:16:44;;;;;;;10.20;2.20;;;13.90;99.90;;;;;;5043675;28;20211;-50
2022/07/10 04:19:10;;;;;;;7.23;1.70;;;13.90;99.90;;;;;;5037974;28;20184;-46
2022/07/10 04:21:37;;;;;;;9.97;2.10;;;14.00;99.90;;;;;;5044662;28;20230;-50
2022/07/10 04:24:05;;;;;;;8.33;2.07;;;14.00;99.90;;;;;;5034069;28;20301;-53
2022/07/10 04:26:33;;;;;;;9.63;3.23;;;14.00;99.90;;;;;;5039696;28;20199;-51
2022/07/10 04:29:00;;;;;;;11.23;2.73;;;14.00;99.90;;;;;;5021884;28;20203;-50
2022/07/10 04:31:26;;;;;;;12.73;2.67;;;14.00;99.90;;;;;;5039291;28;20214;-50
2022/07/10 04:33:53;;;;;;;7.43;2.00;;;14.00;99.90;;;;;;5031668;28;20227;-57
2022/07/10 04:36:20;;;;;;;15.17;2.20;;;13.90;99.90;;;;;;5038365;28;20685;-54
2022/07/10 04:38:47;;;;;;;6.90;2.00;;;13.90;99.90;;;;;;5043084;28;20204;-51
2022/07/10 04:41:14;;;;;;;6.53;2.20;;;13.90;99.90;;;;;;5033506;28;20196;-53
2022/07/10 04:43:43;;;;;;;11.43;2.10;;;13.90;99.90;;;;;;5040028;28;20571;-54
2022/07/10 04:46:10;;;;;;;10.37;3.60;;;14.00;99.90;;;;;;5033747;28;20210;-50
2022/07/10 04:48:36;;;;;;;11.00;2.43;;;14.00;99.90;;;;;;5044539;28;20207;-52
2022/07/10 04:51:03;;;;;;;10.57;1.87;;;14.00;99.90;;;;;;5037549;28;20277;-54
2022/07/10 04:53:30;;;;;;;9.93;2.20;;;14.10;99.90;;;;;;5044011;28;20210;-54
2022/07/10 04:55:58;;;;;;;8.40;2.10;;;14.10;99.90;;;;;;5026382;28;20211;-47
2022/07/10 04:58:25;;;;;;;7.53;1.80;;;14.10;99.90;;;;;;5036841;28;20195;-51
2022/07/10 05:00:53;;;;;;;6.90;3.23;;;14.10;99.90;;;;;;5021567;28;20208;-50
2022/07/10 05:03:19;;;;;;;12.43;2.77;;;14.10;99.90;;;;;;5037620;28;20215;-51
2022/07/10 05:05:46;;;;;;;13.13;3.03;;;14.10;99.90;;;;;;5034431;28;20691;-53
2022/07/10 05:08:13;;;;;;;11.57;2.80;;;14.10;99.90;;;;;;5032381;28;20430;-53
2022/07/10 05:10:39;;;;;;;10.57;2.33;;;14.20;99.90;;;;;;5027032;28;20586;-53
2022/07/10 05:13:07;;;;;;;9.07;2.63;;;14.20;99.90;;;;;;5039834;28;20194;-55
2022/07/10 05:15:34;;;;;;;7.90;2.17;;;14.20;99.90;;;;;;5023417;28;20591;-47
2022/07/10 05:18:02;;;;;;;9.20;2.20;;;14.20;99.90;;;;;;5033485;28;20218;-51
2022/07/10 05:20:33;;;;;;;12.43;3.37;;;14.20;99.90;;;;;;5039452;28;20245;-54
2022/07/10 05:23:00;;;;;;;8.27;2.43;;;14.20;99.90;;;;;;5033849;28;20298;-48
2022/07/10 05:25:30;;;;;;;10.30;2.23;;;14.20;99.90;;;;;;5030136;28;20277;-52
2022/07/10 05:27:57;;;;;;;9.73;2.97;;;14.20;99.90;;;;;;5037710;28;20448;-53
2022/07/10 05:30:23;;;;;;;9.50;2.77;;;14.30;99.90;;;;;;5029018;28;20706;-55
2022/07/10 05:32:50;;;;;;;13.97;2.70;;;14.40;99.90;;;;;;5042991;28;20203;-55
2022/07/10 05:35:19;;;;;;;6.23;1.90;;;14.30;99.90;;;;;;5039010;28;20238;-49
2022/07/10 05:37:46;;;;;;;11.03;2.53;;;14.30;99.90;;;;;;5035429;28;20641;-47
2022/07/10 05:40:13;;;;;;;11.53;2.40;;;14.30;99.90;;;;;;5035479;28;20245;-50
2022/07/10 05:42:40;;;;;;;10.77;2.50;;;14.30;99.90;;;;;;5032170;28;20221;-49
2022/07/10 05:45:08;;;;;;;8.80;2.23;;;14.40;99.90;;;;;;5024492;28;20219;-53
2022/07/10 05:47:35;;;;;;;9.90;2.33;;;14.40;99.90;;;;;;5013201;28;20207;-48
2022/07/10 05:50:02;;;;;;;14.80;3.27;;;14.50;99.90;;;;;;5022745;28;20203;-52
2022/07/10 05:52:31;;;;;;;8.20;2.50;;;14.40;99.90;;;;;;5036082;28;20199;-46
2022/07/10 05:54:57;;;;;;;9.93;2.13;;;14.50;99.90;;;;;;5027612;28;20234;-43
2022/07/10 05:57:24;;;;;;;11.60;2.73;;;14.60;99.90;;;;;;5025887;28;20272;-55
2022/07/10 05:59:52;;;;;;;6.25;2.30;;;14.60;99.90;;;;;;5034617;28;20435;-47
2022/07/10 06:02:19;;;;;;;10.07;2.03;;;14.60;99.90;;;;;;5027723;28;20269;-46
2022/07/10 06:04:46;;;;;;;10.90;2.60;;;14.70;99.90;;;;;;5037670;28;20566;-46
2022/07/10 06:07:13;;;;;;;17.20;2.57;;;14.60;99.90;;;;;;5029133;28;20214;-43
2022/07/10 06:09:41;;;;;;;9.33;2.50;;;14.70;99.90;;;;;;5029823;28;21802;-46
2022/07/10 06:12:09;;;;;;;9.13;2.07;;;14.70;99.90;;;;;;5025215;28;20199;-48
2022/07/10 06:14:36;;;;;;;8.67;2.30;;;14.70;99.90;;;;;;5030799;28;20230;-47
2022/07/10 06:17:04;;;;;;;12.47;2.60;;;14.70;99.90;;;;;;5029005;28;20203;-45
2022/07/10 06:19:30;;;;;;;12.17;2.30;;;14.80;99.90;;;;;;5026353;28;20233;-45
2022/07/10 06:24:43;;;;;;;12.93;2.67;;;14.80;99.90;;;;;;5028315;28;20238;-48
2022/07/10 06:27:09;;;;;;;9.27;2.20;;;14.70;99.90;;;;;;5030230;28;20338;-45
2022/07/10 06:29:36;;;;;;;14.30;2.53;;;14.80;99.90;;;;;;5039701;28;20275;-43
2022/07/10 06:32:04;;;;;;;9.47;2.20;;;14.90;99.90;;;;;;5035795;28;20198;-44
2022/07/10 06:34:30;;;;;;;7.40;2.10;;;14.90;99.90;;;;;;5025456;28;20228;-44
2022/07/10 06:36:57;;;;;;;9.63;2.63;;;14.90;99.90;;;;;;5031773;28;20908;-42
2022/07/10 06:39:24;;;;;;;10.77;2.17;;;15.10;99.90;;;;;;5028749;28;20211;-43
2022/07/10 06:41:52;;;;;;;10.52;2.25;;;15.10;99.90;;;;;;5024193;28;20435;-42
2022/07/10 06:44:19;;;;;;;8.17;2.03;;;15.40;99.90;;;;;;5019777;28;20282;-42
2022/07/10 06:47:55;;;;;;;7.83;1.93;;;15.40;99.90;;;;;;5028491;28;20226;-44
2022/07/10 06:49:32;;;;;;;8.00;2.20;;;15.30;99.90;;;;;;5026889;28;20221;-43
2022/07/10 06:51:59;;;;;;;7.53;1.87;;;15.20;99.90;;;;;;5038333;28;20893;-42
2022/07/10 06:54:26;;;;;;;9.67;1.63;;;15.20;99.90;;;;;;5036135;28;20233;-43
2022/07/10 06:56:54;;;;;;;9.93;2.30;;;15.30;99.90;;;;;;5027939;28;20265;-43
2022/07/10 06:59:21;;;;;;;9.20;2.17;;;15.40;99.90;;;;;;5037522;28;20223;-44
2022/07/10 07:01:48;;;;;;;9.43;2.00;;;15.40;99.90;;;;;;5027899;28;20209;-43
2022/07/10 07:04:15;;;;;;;9.30;2.45;;;15.40;99.90;;;;;;5037009;28;20820;-44
2022/07/10 07:06:42;;;;;;;8.80;1.43;;;15.60;99.90;;;;;;5025712;28;20303;-44
2022/07/10 07:09:08;;;;;;;11.17;2.30;;;15.60;99.90;;;;;;5037523;28;20210;-44
2022/07/10 07:11:35;;;;;;;5.30;2.33;;;15.60;99.90;;;;;;5032271;28;20212;-47
2022/07/10 07:14:03;;;;;;;11.43;2.13;;;15.60;99.90;;;;;;5029927;28;20798;-43
2022/07/10 07:16:41;;;;;;;8.90;1.77;;;15.50;99.90;;;;;;5038256;28;20199;-42
2022/07/10 07:19:09;;;;;;;11.23;2.53;;;15.50;99.90;;;;;;5036894;28;20195;-46
2022/07/10 07:24:21;;;;;;;8.13;1.83;;;15.40;99.90;;;;;;5029790;28;20231;-42
2022/07/10 07:26:48;;;;;;;5.87;1.80;;;15.40;99.90;;;;;;5031641;28;20207;-44
2022/07/10 07:29:17;;;;;;;11.57;2.00;;;15.40;99.90;;;;;;5030338;28;20204;-43
2022/07/10 07:31:45;;;;;;;16.40;2.23;;;15.50;99.90;;;;;;5036300;28;20247;-43
2022/07/10 07:34:12;;;;;;;6.73;1.97;;;15.60;99.90;;;;;;5034327;28;20227;-48
2022/07/10 07:36:38;;;;;;;8.70;1.73;;;15.80;99.90;;;;;;5024709;28;20731;-47
2022/07/10 07:39:05;;;;;;;7.10;1.47;;;15.90;99.90;;;;;;5035878;28;20204;-44
2022/07/10 07:41:32;;;;;;;7.77;1.73;;;15.80;99.90;;;;;;5019390;28;20196;-44
2022/07/10 07:43:59;;;;;;;7.03;1.63;;;15.80;99.90;;;;;;5039498;28;20215;-46
2022/07/10 07:46:27;;;;;;;6.47;1.83;;;15.80;99.90;;;;;;5026977;28;20991;-43
2022/07/10 07:48:54;;;;;;;7.70;2.20;;;15.80;99.90;;;;;;5029446;28;20208;-42
2022/07/10 07:51:21;;;;;;;11.37;1.87;;;15.90;99.90;;;;;;5024920;28;20204;-42
2022/07/10 07:53:47;;;;;;;10.10;2.30;;;16.00;99.90;;;;;;5041518;28;20226;-42
2022/07/10 07:56:14;;;;;;;8.80;1.90;;;16.00;99.90;;;;;;5029608;28;20543;-47
2022/07/10 07:58:41;;;;;;;11.83;2.20;;;16.00;99.90;;;;;;5042928;28;20215;-45
2022/07/10 08:01:08;;;;;;;8.73;1.80;;;15.90;99.90;;;;;;5034743;28;20191;-47
2022/07/10 08:03:36;;;;;;;8.40;1.80;;;15.90;99.90;;;;;;5037626;28;20219;-46
2022/07/10 08:06:04;;;;;;;6.53;1.40;;;16.00;99.90;;;;;;5022527;28;20207;-43
2022/07/10 08:08:31;;;;;;;7.37;1.80;;;15.90;99.90;;;;;;5031485;28;20269;-44
2022/07/10 08:10:57;;;;;;;4.13;1.60;;;15.90;99.90;;;;;;5041170;28;20290;-42
2022/07/10 08:13:24;;;;;;;6.60;1.90;;;16.10;99.90;;;;;;5027142;28;20865;-43
2022/07/10 08:15:51;;;;;;;6.00;1.67;;;16.20;99.90;;;;;;5032611;28;20207;-43
2022/07/10 08:18:18;;;;;;;8.97;1.73;;;16.30;99.90;;;;;;5033599;28;20199;-45
2022/07/10 08:20:47;;;;;;;8.30;1.33;;;16.50;99.90;;;;;;5033132;28;20731;-43
2022/07/10 08:23:14;;;;;;;9.10;1.83;;;16.60;99.90;;;;;;5024205;28;20219;-44
2022/07/10 08:25:40;;;;;;;3.77;1.40;;;16.70;99.90;;;;;;5031226;28;21033;-43
2022/07/10 08:28:09;;;;;;;5.20;1.43;;;16.60;99.90;;;;;;5025984;28;20203;-43
2022/07/10 08:30:36;;;;;;;4.73;1.20;;;16.80;99.90;;;;;;5032176;28;21495;-43
2022/07/10 08:33:03;;;;;;;7.17;1.50;;;16.80;99.90;;;;;;5035291;28;20214;-44
2022/07/10 08:35:30;;;;;;;3.70;1.30;;;17.00;99.90;;;;;;5029103;28;20224;-45
2022/07/10 08:37:58;;;;;;;7.00;1.23;;;17.10;99.90;;;;;;5028624;28;20264;-47
2022/07/10 08:40:25;;;;;;;4.63;1.70;;;17.20;99.90;;;;;;5033230;28;20195;-43
2022/07/10 08:42:52;;;;;;;3.10;1.20;;;17.30;99.90;;;;;;5026648;28;20223;-44
2022/07/10 08:45:19;;;;;;;3.50;1.43;;;17.30;99.20;;;;;;5036239;28;20216;-43
2022/07/10 08:47:47;;;;;;;5.30;1.13;;;17.30;99.30;;;;;;5030076;28;20808;-45
2022/07/10 08:50:20;;;;;;;6.30;1.40;;;17.20;98.90;;;;;;5031134;28;20741;-45
2022/07/10 08:52:55;;;;;;;4.00;1.37;;;17.40;99.30;;;;;;5017057;28;20207;-42
2022/07/10 08:55:26;;;;;;;5.03;1.27;;;17.50;99.40;;;;;;5035407;28;20310;-44
2022/07/10 08:57:54;;;;;;;3.73;0.80;;;17.50;98.10;;;;;;5024110;28;20200;-47
2022/07/10 09:00:22;;;;;;;5.20;1.13;;;17.40;97.80;;;;;;5024324;28;20239;-46
2022/07/10 09:02:49;;;;;;;4.13;1.67;;;17.40;97.70;;;;;;5023781;28;20302;-44
2022/07/10 09:05:16;;;;;;;3.60;1.20;;;17.40;97.40;;;;;;5026724;28;20232;-48
2022/07/10 09:07:43;;;;;;;7.43;1.60;;;17.40;97.40;;;;;;5030777;28;20192;-47
2022/07/10 09:10:12;;;;;;;5.40;1.47;;;17.40;97.20;;;;;;5023231;28;20250;-45
2022/07/10 09:12:54;;;;;;;6.70;1.43;;;17.50;97.70;;;;;;5036227;28;20207;-46
2022/07/10 09:15:24;;;;;;;3.37;1.33;;;17.60;97.50;;;;;;5028641;28;20759;-47
2022/07/10 09:17:52;;;;;;;5.00;1.10;;;17.60;97.30;;;;;;5041409;28;20203;-46
2022/07/10 09:20:27;;;;;;;9.30;1.40;;;17.50;97.30;;;;;;5029172;28;20681;-44
2022/07/10 09:22:54;;;;;;;4.30;1.03;;;17.60;97.50;;;;;;5033918;28;20261;-44
2022/07/10 09:25:21;;;;;;;4.40;1.50;;;17.70;97.70;;;;;;5018622;28;20230;-47
2022/07/10 09:27:56;;;;;;;7.10;1.37;;;17.80;97.90;;;;;;5033371;28;20207;-46
2022/07/10 09:30:33;;;;;;;9.90;1.97;;;17.90;98.30;;;;;;5024415;28;20218;-45
2022/07/10 09:33:17;;;;;;;3.30;1.20;;;17.90;98.10;;;;;;5041661;28;20197;-49
2022/07/10 09:36:11;;;;;;;9.17;1.80;;;17.80;97.60;;;;;;5035431;28;20585;-49
2022/07/10 09:38:52;;;;;;;6.50;1.30;;;17.80;97.50;;;;;;5034822;28;20199;-43
2022/07/10 09:41:21;;;;;;;6.27;1.10;;;17.90;96.70;;;;;;5021589;28;20306;-44
2022/07/10 09:43:51;;;;;;;4.87;1.90;;;17.90;97.20;;;;;;5027969;28;20919;-48
2022/07/10 09:46:19;;;;;;;6.37;1.43;;;17.90;97.00;;;;;;5025964;28;20210;-43
2022/07/10 09:48:46;;;;;;;5.23;1.50;;;17.90;97.30;;;;;;5036460;28;20215;-46
2022/07/10 09:51:14;;;;;;;7.63;1.47;;;18.00;97.50;;;;;;5027615;28;20226;-46
2022/07/10 09:53:42;;;;;;;7.27;1.40;;;18.00;97.20;;;;;;5035680;28;20234;-43
2022/07/10 09:56:11;;;;;;;3.40;1.20;;;18.00;97.00;;;;;;5024223;28;20211;-45
2022/07/10 09:58:39;;;;;;;4.67;1.33;;;18.00;97.00;;;;;;5025645;28;20345;-48
2022/07/10 10:01:08;;;;;;;3.93;1.23;;;18.10;96.80;;;;;;5023175;28;20210;-45
2022/07/10 10:03:37;;;;;;;4.13;1.50;;;18.20;96.40;;;;;;5035596;28;20302;-43
2022/07/10 10:06:11;;;;;;;5.70;1.23;;;18.30;96.30;;;;;;5032109;28;20231;-46
2022/07/10 10:08:49;;;;;;;4.77;1.20;;;18.20;96.00;;;;;;5039876;28;20192;-45
2022/07/10 10:11:21;;;;;;;8.43;1.30;;;18.20;95.70;;;;;;5019978;28;20264;-43
2022/07/10 10:13:50;;;;;;;6.87;1.67;;;18.00;95.90;;;;;;5034224;28;20262;-42
2022/07/10 10:16:20;;;;;;;4.77;1.17;;;18.00;95.60;;;;;;5022933;28;20542;-47
2022/07/10 10:21:34;;;;;;;7.67;1.50;;;18.20;95.60;;;;;;5024920;28;20258;-43
2022/07/10 10:24:03;;;;;;;6.17;1.20;;;18.40;95.20;;;;;;5031835;28;20230;-45
2022/07/10 10:26:30;;;;;;;4.37;1.20;;;18.40;94.70;;;;;;5029854;28;20203;-43
2022/07/10 10:28:59;;;;;;;4.17;1.27;;;18.40;94.70;;;;;;5037894;28;20281;-43
2022/07/10 10:31:28;;;;;;;5.63;1.00;;;18.40;94.00;;;;;;5022733;28;22919;-45
2022/07/10 10:33:56;;;;;;;4.17;1.20;;;18.40;93.80;;;;;;5044938;28;20211;-43
2022/07/10 10:36:45;;;;;;;6.13;0.80;;;18.20;94.10;;;;;;5033322;28;20202;-45
2022/07/10 10:39:16;;;;;;;5.27;1.30;;;18.10;93.60;;;;;;5035369;28;20335;-45
2022/07/10 10:41:47;;;;;;;7.30;1.00;;;18.10;93.90;;;;;;5025880;28;20259;-47
2022/07/10 10:44:21;;;;;;;5.63;1.30;;;18.20;93.90;;;;;;5036635;28;20645;-46
2022/07/10 10:47:07;;;;;;;4.70;0.80;;;18.20;93.40;;;;;;5037308;28;20921;-49
2022/07/10 10:50:01;;;;;;;4.57;1.10;;;18.20;93.70;;;;;;5029208;28;20915;-47
2022/07/10 10:52:30;;;;;;;4.37;1.23;;;18.20;92.10;;;;;;5020321;28;20196;-47
2022/07/10 10:55:14;;;;;;;7.53;1.53;;;18.10;93.40;;;;;;5034114;28;20207;-50
2022/07/10 10:57:47;;;;;;;3.23;1.10;;;18.20;93.40;;;;;;5019106;28;20210;-48
2022/07/10 11:00:29;;;;;;;7.03;1.10;;;18.20;92.80;;;;;;5032754;28;20289;-51
2022/07/10 11:03:17;;;;;;;4.17;1.57;;;18.30;93.10;;;;;;5036926;28;20199;-47
2022/07/10 11:05:45;;;;;;;5.70;1.30;;;18.30;93.40;;;;;;5034210;28;20211;-49
2022/07/10 11:08:13;;;;;;;5.07;1.00;;;18.30;93.10;;;;;;5030218;28;20208;-49
2022/07/10 11:10:42;;;;;;;4.33;0.97;;;18.30;93.20;;;;;;5042391;28;20661;-51
2022/07/10 11:13:10;;;;;;;2.23;0.90;;;18.40;92.90;;;;;;5018773;28;20900;-47
2022/07/10 11:15:38;;;;;;;4.03;0.90;;;18.40;93.00;;;;;;5034404;28;20251;-47
2022/07/10 11:18:06;;;;;;;3.73;1.00;;;18.40;92.50;;;;;;5036552;28;20235;-52
2022/07/10 11:20:35;;;;;;;3.00;1.17;;;18.30;92.20;;;;;;5034061;28;20211;-47
2022/07/10 11:23:18;;;;;;;6.07;1.43;;;18.50;92.70;;;;;;5031701;28;20203;-52
2022/07/10 11:26:00;;;;;;;4.80;1.10;;;18.60;92.40;;;;;;5035024;28;20188;-50
2022/07/10 11:28:42;;;;;;;5.17;1.03;;;18.60;93.20;;;;;;5023040;28;20210;-51
2022/07/10 11:31:08;;;;;;;4.70;0.93;;;18.70;92.20;;;;;;5027850;28;20207;-52
2022/07/10 11:33:40;;;;;;;3.53;1.10;;;18.80;92.80;;;;;;5037451;28;20207;-49
2022/07/10 11:36:13;;;;;;;6.90;0.97;;;18.70;92.00;;;;;;5028267;28;20568;-49
2022/07/10 11:38:41;;;;;;;2.90;1.07;;;18.50;92.60;;;;;;5037777;28;20204;-51
2022/07/10 11:41:17;;;;;;;4.03;1.50;;;18.40;93.20;;;;;;5033244;28;20227;-49
2022/07/10 11:43:51;;;;;;;4.30;1.17;;;18.50;93.10;;;;;;5023129;28;20219;-47
2022/07/10 11:46:18;;;;;;;5.73;1.20;;;18.70;93.30;;;;;;5030137;28;20212;-45
2022/07/10 11:48:46;;;;;;;1.53;1.00;;;18.60;93.10;;;;;;5042806;28;20738;-45
2022/07/10 11:51:25;;;;;;;4.47;1.00;;;18.50;93.30;;;;;;5024583;28;20278;-50
2022/07/10 11:53:58;;;;;;;3.60;1.27;;;18.50;93.70;;;;;;5033499;28;20250;-42
2022/07/10 11:56:25;;;;;;;4.57;1.37;;;18.50;94.00;;;;;;5036723;28;20606;-44
2022/07/10 11:58:59;;;;;;;5.03;1.00;;;18.50;93.60;;;;;;5026736;28;20211;-46
2022/07/10 12:01:28;;;;;;;5.80;1.70;;;18.40;93.60;;;;;;5036546;28;20195;-44
2022/07/10 12:03:57;;;;;;;5.60;1.30;;;18.30;93.30;;;;;;5035702;28;20223;-42
2022/07/10 12:06:25;;;;;;;4.97;1.00;;;18.30;93.30;;;;;;5032567;28;20191;-44
2022/07/10 12:08:53;;;;;;;5.77;0.90;;;18.30;93.80;;;;;;5039307;28;21063;-42
2022/07/10 12:11:21;;;;;;;3.90;0.90;;;18.50;93.80;;;;;;5035351;28;20286;-41
2022/07/10 12:13:50;;;;;;;3.13;1.30;;;18.50;93.50;;;;;;5040891;28;20245;-42
2022/07/10 12:16:17;;;;;;;4.53;0.90;;;18.50;93.40;;;;;;5029686;28;20195;-45
2022/07/10 12:18:44;;;;;;;5.17;1.33;;;18.60;93.60;;;;;;5038244;28;20210;-44
2022/07/10 12:21:12;;;;;;;6.37;1.20;;;18.60;93.50;;;;;;5030215;28;20898;-42
2022/07/10 12:23:41;;;;;;;3.07;0.80;;;18.60;93.20;;;;;;5035897;28;20199;-44
2022/07/10 12:26:10;;;;;;;3.10;1.00;;;18.70;93.00;;;;;;5028457;28;20204;-42
2022/07/10 12:28:54;;;;;;;5.17;1.00;;;18.80;92.10;;;;;;5037801;28;20239;-42
2022/07/10 12:31:26;;;;;;;4.57;0.83;;;18.70;91.60;;;;;;5030976;28;20199;-41
2022/07/10 12:33:57;;;;;;;5.10;1.50;;;18.60;92.40;;;;;;5036565;28;20242;-42
2022/07/10 12:36:25;;;;;;;6.13;1.30;;;18.60;92.90;;;;;;5039780;28;20208;-46
2022/07/10 12:38:58;;;;;;;4.40;1.27;;;18.60;92.80;;;;;;5034364;28;20214;-43
2022/07/10 12:41:26;;;;;;;3.93;1.30;;;18.50;92.90;;;;;;5024269;28;20533;-44
2022/07/10 12:43:54;;;;;;;5.53;1.27;;;18.50;93.30;;;;;;5032932;28;20726;-42
2022/07/10 12:46:23;;;;;;;7.63;1.20;;;18.40;93.20;;;;;;5023035;28;20199;-45
2022/07/10 12:49:04;;;;;;;6.80;1.30;;;18.30;93.70;;;;;;5032558;28;20704;-42
2022/07/10 12:51:32;;;;;;;3.77;1.00;;;18.30;93.70;;;;;;5037246;28;20204;-46
2022/07/10 12:54:00;;;;;;;7.27;1.17;;;18.40;94.10;;;;;;5028230;28;20227;-44
2022/07/10 12:56:29;;;;;;;3.07;0.90;;;18.30;94.00;;;;;;5036288;28;20211;-44
2022/07/10 12:58:56;;;;;;;4.00;1.03;;;18.40;94.40;;;;;;5042087;28;20200;-42
2022/07/10 13:01:23;;;;;;;6.50;2.03;;;18.40;94.80;;;;;;5027360;28;20195;-42
2022/07/10 13:03:59;;;;;;;5.37;1.20;;;18.40;94.80;;;;;;5042667;28;20215;-44
2022/07/10 13:06:30;;;;;;;6.77;1.27;;;18.40;95.20;;;;;;5037632;28;20215;-42